createdAt,value
2023-03-15T00:00:42.343Z,57.13
2023-03-15T00:03:27.177Z,57.27
2023-03-15T00:06:12.123Z,56.83
2023-03-15T00:08:56.961Z,56.55
2023-03-15T00:11:41.996Z,58.32
2023-03-15T00:14:26.738Z,62.88
2023-03-15T00:17:11.729Z,64.48
2023-03-15T00:19:56.453Z,66.28
2023-03-15T00:22:41.508Z,66.80
2023-03-15T00:25:26.551Z,65.59
2023-03-15T00:28:11.313Z,65.79
2023-03-15T00:30:56.382Z,64.63
2023-03-15T00:33:41.142Z,62.34
2023-03-15T00:36:26.040Z,63.02
2023-03-15T00:39:10.855Z,62.98
2023-03-15T00:41:55.774Z,62.85
2023-03-15T00:44:40.553Z,61.54
2023-03-15T00:47:25.555Z,64.02
2023-03-15T00:50:10.435Z,64.22
2023-03-15T00:52:55.314Z,64.17
2023-03-15T00:55:40.328Z,61.46
2023-03-15T00:58:26.580Z,61.23
2023-03-15T01:01:12.814Z,60.62
2023-03-15T01:03:57.769Z,61.18
2023-03-15T01:06:42.492Z,61.55
2023-03-15T01:09:27.362Z,61.51
2023-03-15T01:12:12.337Z,60.12
2023-03-15T01:14:57.115Z,59.64
2023-03-15T01:17:41.907Z,59.66
2023-03-15T01:20:26.757Z,58.78
2023-03-15T01:23:11.786Z,59.30
2023-03-15T01:25:56.604Z,60.19
2023-03-15T01:28:41.314Z,62.28
2023-03-15T01:31:26.330Z,61.81
2023-03-15T01:34:11.075Z,61.58
2023-03-15T01:36:55.869Z,59.98
2023-03-15T01:39:40.912Z,56.75
2023-03-15T01:42:25.646Z,54.83
2023-03-15T01:45:10.580Z,55.60
2023-03-15T01:47:55.290Z,54.19
2023-03-15T01:50:40.184Z,54.75
2023-03-15T01:53:24.928Z,55.00
2023-03-15T01:56:09.778Z,54.45
2023-03-15T01:58:54.621Z,53.08
2023-03-15T02:01:39.488Z,54.19
2023-03-15T02:04:24.398Z,53.18
2023-03-15T02:07:09.236Z,54.12
2023-03-15T02:09:54.128Z,52.68
2023-03-15T02:12:39.037Z,52.32
2023-03-15T02:15:23.946Z,53.19
2023-03-15T02:18:08.794Z,52.53
2023-03-15T02:20:53.571Z,53.91
2023-03-15T02:23:38.463Z,52.42
2023-03-15T02:26:23.279Z,53.11
2023-03-15T02:29:08.137Z,51.79
2023-03-15T02:31:52.898Z,52.97
2023-03-15T02:34:37.828Z,52.17
2023-03-15T02:37:22.674Z,51.54
2023-03-15T02:40:07.550Z,52.09
2023-03-15T02:42:52.309Z,55.33
2023-03-15T02:45:37.326Z,56.56
2023-03-15T02:48:22.097Z,55.82
2023-03-15T02:51:06.970Z,57.41
2023-03-15T02:53:52.360Z,56.66
2023-03-15T02:56:37.181Z,56.55
2023-03-15T02:59:22.164Z,54.73
2023-03-15T03:02:07.032Z,53.96
2023-03-15T03:04:51.900Z,54.52
2023-03-15T03:07:36.790Z,54.24
2023-03-15T03:10:21.631Z,54.29
2023-03-15T03:13:06.455Z,55.02
2023-03-15T03:15:51.404Z,57.05
2023-03-15T03:18:36.320Z,57.29
2023-03-15T03:21:21.049Z,57.26
2023-03-15T03:24:06.021Z,55.01
2023-03-15T03:26:50.742Z,54.95
2023-03-15T03:29:35.603Z,55.92
2023-03-15T03:32:20.400Z,53.71
2023-03-15T03:35:05.330Z,55.82
2023-03-15T03:37:50.220Z,56.51
2023-03-15T03:40:35.108Z,57.31
2023-03-15T03:43:19.921Z,55.76
2023-03-15T03:46:04.864Z,56.17
2023-03-15T03:48:49.653Z,55.65
2023-03-15T03:51:34.326Z,56.11
2023-03-15T03:54:19.313Z,56.10
2023-03-15T03:57:04.182Z,53.85
2023-03-15T03:59:49.089Z,52.79
2023-03-15T04:02:33.889Z,53.73
2023-03-15T04:05:18.711Z,55.37
2023-03-15T04:08:03.586Z,55.58
2023-03-15T04:10:48.496Z,55.96
2023-03-15T04:13:33.406Z,56.44
2023-03-15T04:16:18.183Z,57.11
2023-03-15T04:19:03.014Z,56.42
2023-03-15T04:21:47.916Z,57.90
2023-03-15T04:24:32.900Z,58.10
2023-03-15T04:27:17.661Z,59.22
2023-03-15T04:30:02.678Z,59.68
2023-03-15T04:32:47.527Z,58.11
2023-03-15T04:35:32.298Z,58.86
2023-03-15T04:38:17.220Z,58.63
2023-03-15T04:41:02.053Z,57.36
2023-03-15T04:43:47.004Z,54.91
2023-03-15T04:46:31.797Z,55.10
2023-03-15T04:49:16.770Z,54.59
2023-03-15T04:52:01.666Z,55.57
2023-03-15T04:54:46.592Z,56.47
2023-03-15T04:57:31.311Z,56.57
2023-03-15T05:00:16.259Z,56.19
2023-03-15T05:03:01.152Z,55.90
2023-03-15T05:05:45.967Z,57.03
2023-03-15T05:08:30.793Z,56.86
2023-03-15T05:11:15.664Z,55.69
2023-03-15T05:14:00.512Z,57.54
2023-03-15T05:16:45.361Z,58.11
2023-03-15T05:19:30.427Z,59.22
2023-03-15T05:22:15.251Z,58.79
2023-03-15T05:25:00.099Z,57.09
2023-03-15T05:27:44.952Z,57.18
2023-03-15T05:30:29.845Z,58.80
2023-03-15T05:33:14.845Z,57.25
2023-03-15T05:35:59.650Z,57.68
2023-03-15T05:38:45.700Z,57.31
2023-03-15T05:41:30.833Z,57.71
2023-03-15T05:44:15.779Z,57.99
2023-03-15T05:47:00.585Z,57.08
2023-03-15T05:49:45.506Z,57.65
2023-03-15T05:52:30.421Z,57.54
2023-03-15T05:55:15.282Z,56.73
2023-03-15T05:58:00.445Z,55.89
2023-03-15T06:00:45.376Z,56.47
2023-03-15T06:03:30.269Z,56.82
2023-03-15T06:06:15.725Z,55.80
2023-03-15T06:09:00.431Z,56.33
2023-03-15T06:11:46.564Z,55.39
2023-03-15T06:14:31.662Z,56.08
2023-03-15T06:17:16.728Z,56.57
2023-03-15T06:20:01.568Z,55.95
2023-03-15T06:22:46.420Z,56.26
2023-03-15T06:25:31.201Z,57.00
2023-03-15T06:28:16.095Z,57.47
2023-03-15T06:31:00.828Z,57.15
2023-03-15T06:33:45.636Z,57.05
2023-03-15T06:36:30.560Z,57.01
2023-03-15T06:39:15.381Z,56.73
2023-03-15T06:42:00.289Z,56.37
2023-03-15T06:44:45.112Z,56.02
2023-03-15T06:47:29.924Z,56.58
2023-03-15T06:50:14.729Z,55.06
2023-03-15T06:52:59.595Z,53.71
2023-03-15T06:55:44.486Z,54.96
2023-03-15T06:58:29.338Z,55.08
2023-03-15T07:01:14.197Z,55.32
2023-03-15T07:03:59.505Z,55.04
2023-03-15T07:06:44.563Z,54.52
2023-03-15T07:09:29.370Z,54.15
2023-03-15T07:12:14.365Z,54.84
2023-03-15T07:14:59.229Z,53.31
2023-03-15T07:17:44.006Z,54.45
2023-03-15T07:20:28.742Z,52.66
2023-03-15T07:23:13.554Z,50.83
2023-03-15T07:25:58.495Z,51.98
2023-03-15T07:28:43.387Z,51.75
2023-03-15T07:31:28.390Z,54.95
2023-03-15T07:34:13.129Z,54.82
2023-03-15T07:36:58.169Z,55.26
2023-03-15T07:39:42.975Z,55.89
2023-03-15T07:42:27.940Z,56.63
2023-03-15T07:45:12.577Z,56.35
2023-03-15T07:47:57.410Z,55.03
2023-03-15T07:50:42.284Z,54.46
2023-03-15T07:53:27.156Z,53.89
2023-03-15T07:56:12.598Z,55.55
2023-03-15T07:58:57.351Z,56.03
2023-03-15T08:01:42.342Z,55.86
2023-03-15T08:04:27.591Z,55.89
2023-03-15T08:07:12.330Z,55.30
2023-03-15T08:09:57.104Z,56.18
2023-03-15T08:12:41.939Z,55.66
2023-03-15T08:15:26.874Z,55.20
2023-03-15T08:18:11.739Z,54.12
2023-03-15T08:20:56.699Z,53.85
2023-03-15T08:23:41.482Z,53.24
2023-03-15T08:26:26.389Z,53.95
2023-03-15T08:29:11.115Z,53.62
2023-03-15T08:31:56.021Z,52.57
2023-03-15T08:34:40.805Z,50.14
2023-03-15T08:37:25.697Z,51.42
2023-03-15T08:40:10.432Z,50.90
2023-03-15T08:42:55.421Z,50.08
2023-03-15T08:45:59.497Z,52.27
2023-03-15T08:48:45.249Z,51.93
2023-03-15T08:51:30.100Z,52.56
2023-03-15T08:54:14.835Z,50.47
2023-03-15T08:56:59.586Z,51.97
2023-03-15T08:59:44.508Z,51.80
2023-03-15T09:02:29.467Z,50.85
2023-03-15T09:05:14.350Z,50.94
2023-03-15T09:07:59.218Z,52.27
2023-03-15T09:10:44.189Z,52.08
2023-03-15T09:13:28.964Z,50.83
2023-03-15T09:16:13.952Z,49.80
2023-03-15T09:18:58.784Z,49.24
2023-03-15T09:21:44.916Z,48.65
2023-03-15T09:24:30.043Z,46.80
2023-03-15T09:27:14.935Z,47.72
2023-03-15T09:29:59.901Z,45.70
2023-03-15T09:32:44.710Z,43.16
2023-03-15T09:35:29.707Z,45.77
2023-03-15T09:38:14.532Z,44.18
2023-03-15T09:40:59.361Z,45.02
2023-03-15T09:43:44.240Z,44.46
2023-03-15T09:46:29.228Z,42.69
2023-03-15T09:49:14.208Z,44.39
2023-03-15T09:51:59.093Z,43.31
2023-03-15T09:54:44.021Z,42.54
2023-03-15T09:57:28.778Z,42.87
2023-03-15T10:00:13.626Z,43.28
2023-03-15T10:02:58.568Z,41.39
2023-03-15T10:05:43.518Z,42.56
2023-03-15T10:08:29.034Z,41.30
2023-03-15T10:11:13.853Z,40.19
2023-03-15T10:13:58.798Z,39.84
2023-03-15T10:16:43.762Z,40.10
2023-03-15T10:19:28.650Z,41.02
2023-03-15T10:22:13.435Z,39.57
2023-03-15T10:24:58.322Z,39.08
2023-03-15T10:27:43.383Z,41.04
2023-03-15T10:30:28.477Z,38.95
2023-03-15T10:33:13.496Z,37.41
2023-03-15T10:36:07.825Z,38.69
2023-03-15T10:38:55.819Z,37.27
2023-03-15T10:41:40.766Z,37.91
2023-03-15T10:44:25.662Z,35.13
2023-03-15T10:47:22.476Z,37.45
2023-03-15T10:50:08.432Z,35.85
2023-03-15T10:52:53.227Z,35.52
2023-03-15T10:55:38.307Z,37.00
2023-03-15T10:58:25.353Z,34.75
2023-03-15T11:01:10.724Z,37.61
2023-03-15T11:03:55.622Z,35.54
2023-03-15T11:06:40.468Z,36.87
2023-03-15T11:09:25.444Z,33.53
2023-03-15T11:12:10.224Z,35.84
2023-03-15T11:14:55.062Z,35.03
2023-03-15T11:17:39.953Z,33.48
2023-03-15T11:20:24.985Z,35.04
2023-03-15T11:23:09.823Z,34.43
2023-03-15T11:25:54.657Z,32.97
2023-03-15T11:28:39.575Z,32.68
2023-03-15T11:31:24.475Z,32.23
2023-03-15T11:34:09.287Z,32.69
2023-03-15T11:37:07.254Z,32.97
2023-03-15T11:39:58.805Z,31.04
2023-03-15T11:42:46.838Z,28.94
2023-03-15T11:45:31.698Z,29.89
2023-03-15T11:48:16.985Z,31.17
2023-03-15T11:51:01.783Z,31.78
2023-03-15T11:53:46.487Z,27.62
2023-03-15T11:56:31.340Z,26.56
2023-03-15T11:59:16.256Z,26.22
2023-03-15T12:02:01.154Z,27.69
2023-03-15T12:04:45.926Z,28.92
2023-03-15T12:07:31.015Z,25.50
2023-03-15T12:10:15.968Z,26.51
2023-03-15T12:13:00.813Z,26.56
2023-03-15T12:15:45.643Z,27.70
2023-03-15T12:18:30.473Z,27.82
2023-03-15T12:21:15.426Z,27.11
2023-03-15T12:24:00.206Z,26.43
2023-03-15T12:26:45.170Z,26.23
2023-03-15T12:29:29.989Z,22.10
2023-03-15T12:32:15.008Z,25.46
2023-03-15T12:34:59.770Z,26.19
2023-03-15T12:37:44.675Z,23.90
2023-03-15T12:40:29.621Z,23.06
2023-03-15T12:43:14.557Z,23.44
2023-03-15T12:45:59.409Z,24.52
2023-03-15T12:48:44.233Z,22.87
2023-03-15T12:51:29.029Z,23.95
2023-03-15T12:54:13.941Z,23.74
2023-03-15T12:56:58.892Z,26.56
2023-03-15T12:59:43.710Z,26.19
2023-03-15T13:02:41.662Z,23.86
2023-03-15T13:05:27.499Z,25.44
2023-03-15T13:08:12.499Z,24.01
2023-03-15T13:10:57.218Z,25.01
2023-03-15T13:13:42.130Z,22.43
2023-03-15T13:16:27.115Z,22.17
2023-03-15T13:19:12.085Z,25.42
2023-03-15T13:21:56.850Z,24.29
2023-03-15T13:24:41.749Z,22.68
2023-03-15T13:27:26.672Z,19.34
2023-03-15T13:30:11.490Z,18.77
2023-03-15T13:32:56.517Z,19.35
2023-03-15T13:35:41.309Z,19.02
2023-03-15T13:38:26.278Z,19.37
2023-03-15T13:41:11.074Z,20.79
2023-03-15T13:43:56.013Z,19.01
2023-03-15T13:46:40.894Z,20.13
2023-03-15T13:49:25.711Z,19.42
2023-03-15T13:52:10.574Z,19.65
2023-03-15T13:54:55.260Z,17.83
2023-03-15T13:57:40.137Z,18.21
2023-03-15T14:00:24.923Z,17.17
2023-03-15T14:03:09.915Z,17.29
2023-03-15T14:05:54.792Z,15.14
2023-03-15T14:08:39.656Z,12.83
2023-03-15T14:11:24.432Z,15.49
2023-03-15T14:14:09.227Z,17.88
2023-03-15T14:17:05.032Z,17.46
2023-03-15T14:19:50.696Z,16.69
2023-03-15T14:22:35.512Z,14.36
2023-03-15T14:25:20.345Z,14.21
2023-03-15T14:28:05.485Z,16.15
2023-03-15T14:30:50.337Z,13.04
2023-03-15T14:33:35.245Z,15.50
2023-03-15T14:36:20.116Z,16.64
2023-03-15T14:39:05.271Z,16.24
2023-03-15T14:41:50.001Z,15.04
2023-03-15T14:44:34.878Z,18.03
2023-03-15T14:47:19.771Z,17.71
2023-03-15T14:50:04.615Z,16.40
2023-03-15T14:52:50.169Z,16.14
2023-03-15T14:55:35.089Z,14.55
2023-03-15T14:58:20.001Z,13.98
2023-03-15T15:01:04.853Z,15.53
2023-03-15T15:03:49.688Z,15.88
2023-03-15T15:06:34.495Z,15.47
2023-03-15T15:09:19.571Z,14.76
2023-03-15T15:12:04.792Z,16.47
2023-03-15T15:14:49.715Z,16.11
2023-03-15T15:17:34.669Z,14.17
2023-03-15T15:20:19.502Z,13.76
2023-03-15T15:23:04.632Z,12.95
2023-03-15T15:25:49.405Z,12.98
2023-03-15T15:28:36.891Z,14.09
2023-03-15T15:31:22.091Z,16.05
2023-03-15T15:34:07.048Z,17.08
2023-03-15T15:36:51.952Z,19.17
2023-03-15T15:39:36.848Z,19.39
2023-03-15T15:42:21.718Z,17.94
2023-03-15T15:45:06.511Z,18.34
2023-03-15T15:47:51.499Z,18.70
2023-03-15T15:50:36.396Z,21.94
2023-03-15T15:53:21.339Z,18.53
2023-03-15T15:56:06.213Z,18.70
2023-03-15T15:58:50.973Z,17.71
2023-03-15T16:01:41.016Z,19.13
2023-03-15T16:04:31.370Z,17.14
2023-03-15T16:07:16.249Z,17.55
2023-03-15T16:10:01.139Z,15.92
2023-03-15T16:12:46.022Z,16.61
2023-03-15T16:15:30.920Z,16.65
2023-03-15T16:18:15.695Z,16.79
2023-03-15T16:21:00.681Z,18.31
2023-03-15T16:23:45.616Z,17.10
2023-03-15T16:26:30.520Z,19.00
2023-03-15T16:29:15.465Z,22.15
2023-03-15T16:32:13.796Z,19.57
2023-03-15T16:35:01.689Z,18.45
2023-03-15T16:37:46.525Z,23.23
2023-03-15T16:40:31.255Z,18.71
2023-03-15T16:43:16.019Z,18.48
2023-03-15T16:46:00.785Z,19.76
2023-03-15T16:48:46.069Z,19.93
2023-03-15T16:51:30.874Z,20.62
2023-03-15T16:54:27.308Z,19.04
2023-03-15T16:57:19.401Z,16.59
2023-03-15T17:00:05.355Z,17.18
2023-03-15T17:02:50.258Z,18.09
2023-03-15T17:05:35.109Z,16.86
2023-03-15T17:08:20.044Z,17.83
2023-03-15T17:11:04.894Z,21.21
2023-03-15T17:13:49.713Z,21.02
2023-03-15T17:16:34.691Z,19.43
2023-03-15T17:19:20.173Z,17.82
2023-03-15T17:22:04.953Z,21.13
2023-03-15T17:24:49.898Z,19.33
2023-03-15T17:27:34.724Z,21.73
2023-03-15T17:30:19.714Z,20.92
2023-03-15T17:33:04.803Z,24.43
2023-03-15T17:35:49.725Z,22.77
2023-03-15T17:38:34.611Z,22.91
2023-03-15T17:41:19.638Z,20.72
2023-03-15T17:44:04.477Z,20.62
2023-03-15T17:46:49.506Z,21.02
2023-03-15T17:49:34.179Z,20.27
2023-03-15T17:52:19.145Z,20.50
2023-03-15T17:55:04.073Z,21.00
2023-03-15T17:57:54.727Z,21.69
2023-03-15T18:00:40.971Z,24.46
2023-03-15T18:03:25.949Z,26.21
2023-03-15T18:06:10.885Z,27.52
2023-03-15T18:08:55.881Z,26.91
2023-03-15T18:11:40.696Z,28.20
2023-03-15T18:14:25.668Z,25.28
2023-03-15T18:17:10.620Z,28.84
2023-03-15T18:19:55.370Z,30.87
2023-03-15T18:22:40.296Z,32.93
2023-03-15T18:25:25.278Z,34.85
2023-03-15T18:28:10.304Z,33.71
2023-03-15T18:30:55.283Z,33.82
2023-03-15T18:33:40.201Z,35.09
2023-03-15T18:36:25.144Z,35.58
2023-03-15T18:39:10.079Z,35.19
2023-03-15T18:41:54.865Z,35.51
2023-03-15T18:44:39.889Z,35.18
2023-03-15T18:47:24.694Z,35.73
2023-03-15T18:50:10.809Z,35.74
2023-03-15T18:52:56.169Z,35.79
2023-03-15T18:55:41.022Z,35.32
2023-03-15T18:58:26.092Z,35.32
2023-03-15T19:01:10.880Z,35.62
2023-03-15T19:03:55.860Z,34.54
2023-03-15T19:06:40.671Z,35.25
2023-03-15T19:09:25.612Z,35.13
2023-03-15T19:12:10.568Z,35.03
2023-03-15T19:14:55.401Z,35.82
2023-03-15T19:17:40.371Z,35.95
2023-03-15T19:20:25.314Z,35.84
2023-03-15T19:23:10.669Z,35.81
2023-03-15T19:25:55.460Z,36.98
2023-03-15T19:28:40.335Z,35.89
2023-03-15T19:31:25.117Z,36.05
2023-03-15T19:34:10.310Z,36.46
2023-03-15T19:36:55.440Z,36.42
2023-03-15T19:39:40.637Z,36.04
2023-03-15T19:42:25.548Z,35.91
2023-03-15T19:45:10.411Z,36.41
2023-03-15T19:47:55.253Z,36.10
2023-03-15T19:50:40.232Z,35.84
2023-03-15T19:53:25.141Z,35.97
2023-03-15T19:56:09.996Z,35.52
2023-03-15T19:58:54.892Z,36.20
2023-03-15T20:01:39.846Z,35.95
2023-03-15T20:04:24.724Z,36.33
2023-03-15T20:07:09.564Z,35.89
2023-03-15T20:09:54.389Z,36.91
2023-03-15T20:12:39.250Z,36.55
2023-03-15T20:15:24.010Z,36.79
2023-03-15T20:18:08.868Z,36.46
2023-03-15T20:20:53.676Z,36.46
2023-03-15T20:23:38.719Z,36.22
2023-03-15T20:26:23.624Z,36.63
2023-03-15T20:29:08.524Z,36.68
2023-03-15T20:31:53.610Z,36.85
2023-03-15T20:34:38.909Z,37.06
2023-03-15T20:37:23.894Z,37.19
2023-03-15T20:40:08.736Z,38.27
2023-03-15T20:42:54.245Z,37.55
2023-03-15T20:45:39.112Z,37.77
2023-03-15T20:48:23.880Z,38.15
2023-03-15T20:51:08.867Z,37.93
2023-03-15T20:53:53.723Z,38.51
2023-03-15T20:56:38.556Z,37.82
2023-03-15T20:59:23.385Z,38.60
2023-03-15T21:02:08.304Z,38.61
2023-03-15T21:04:53.148Z,38.67
2023-03-15T21:07:38.060Z,38.12
2023-03-15T21:10:23.222Z,39.91
2023-03-15T21:13:10.141Z,38.41
2023-03-15T21:15:55.489Z,39.45
2023-03-15T21:18:40.338Z,39.32
2023-03-15T21:21:25.206Z,39.94
2023-03-15T21:24:10.041Z,40.88
2023-03-15T21:26:54.816Z,41.02
2023-03-15T21:29:39.659Z,41.53
2023-03-15T21:32:24.580Z,40.83
2023-03-15T21:35:09.401Z,44.46
2023-03-15T21:37:54.260Z,41.44
2023-03-15T21:40:39.165Z,41.06
2023-03-15T21:43:24.072Z,43.60
2023-03-15T21:46:09.138Z,43.39
2023-03-15T21:48:54.439Z,43.94
2023-03-15T21:51:39.321Z,42.74
2023-03-15T21:54:24.156Z,42.57
2023-03-15T21:57:08.975Z,41.51
2023-03-15T21:59:53.876Z,40.66
2023-03-15T22:02:38.691Z,39.12
2023-03-15T22:05:23.624Z,39.39
2023-03-15T22:08:08.369Z,40.70
2023-03-15T22:10:53.250Z,41.22
2023-03-15T22:13:38.038Z,41.63
2023-03-15T22:16:22.930Z,40.19
2023-03-15T22:19:07.782Z,40.95
2023-03-15T22:21:52.572Z,41.57
2023-03-15T22:24:37.452Z,42.23
2023-03-15T22:27:22.239Z,42.52
2023-03-15T22:30:07.191Z,42.63
2023-03-15T22:32:52.061Z,42.03
2023-03-15T22:35:36.908Z,42.26
2023-03-15T22:38:21.726Z,43.48
2023-03-15T22:41:06.431Z,44.64
2023-03-15T22:43:51.177Z,45.22
2023-03-15T22:46:36.122Z,45.16
2023-03-15T22:49:21.045Z,46.80
2023-03-15T22:52:05.926Z,47.05
2023-03-15T22:54:50.904Z,47.30
2023-03-15T22:57:35.669Z,49.34
2023-03-15T23:00:20.578Z,49.71
2023-03-15T23:03:05.487Z,50.25
2023-03-15T23:05:50.494Z,50.65
2023-03-15T23:08:35.304Z,49.54
2023-03-15T23:11:20.117Z,50.31
2023-03-15T23:14:04.952Z,51.04
2023-03-15T23:16:49.795Z,50.98
2023-03-15T23:19:34.674Z,51.05
2023-03-15T23:22:19.620Z,52.35
2023-03-15T23:25:04.619Z,51.85
2023-03-15T23:27:49.440Z,51.97
2023-03-15T23:30:35.866Z,51.77
2023-03-15T23:33:21.279Z,50.56
2023-03-15T23:36:06.157Z,51.90
2023-03-15T23:38:50.969Z,51.65
2023-03-15T23:41:35.856Z,50.58
2023-03-15T23:44:20.712Z,50.06
2023-03-15T23:47:05.593Z,50.98
2023-03-15T23:49:50.510Z,52.44
2023-03-15T23:52:35.321Z,52.70
2023-03-15T23:55:20.325Z,52.55
2023-03-15T23:58:05.173Z,53.29
